Time;durP1;ratioP1;P1;durP2;ratioP2;P2;SDS_P1;SDS_P2;PMS_P1;PMS_P2;Temp;Humidity;BMP_temperature;BMP_pressure;BME280_temperature;BME280_humidity;BME280_pressure;Samples;Min_cycle;Max_cycle;Signal;HPM_P1;HPM_P2
2022/07/30 00:00:40;;;;;;;10.50;3.80;;;16.50;99.90;;;;;;4899200;29;20056;-85
2022/07/30 00:03:26;;;;;;;9.88;3.47;;;16.50;99.90;;;;;;4917124;29;20704;-85
2022/07/30 00:06:13;;;;;;;8.63;3.90;;;16.50;99.90;;;;;;4916858;29;20048;-83
2022/07/30 00:08:59;;;;;;;6.60;3.35;;;16.40;99.90;;;;;;4903635;29;20087;-84
2022/07/30 00:11:45;;;;;;;11.38;3.40;;;16.40;99.90;;;;;;4902519;29;20500;-85
2022/07/30 00:14:33;;;;;;;10.85;3.88;;;16.40;99.90;;;;;;4925320;29;20452;-84
2022/07/30 00:17:19;;;;;;;12.32;4.00;;;16.30;99.90;;;;;;4901108;29;20119;-85
2022/07/30 00:20:06;;;;;;;6.20;3.92;;;16.30;99.90;;;;;;4916478;29;20070;-82
2022/07/30 00:22:52;;;;;;;9.93;3.92;;;16.30;99.90;;;;;;4900730;29;20048;-85
2022/07/30 00:25:38;;;;;;;8.93;3.70;;;16.30;99.90;;;;;;4915799;29;20523;-85
2022/07/30 00:28:25;;;;;;;10.20;5.50;;;16.20;99.90;;;;;;4900673;29;20066;-87
2022/07/30 00:31:11;;;;;;;10.77;4.00;;;16.20;99.90;;;;;;4915199;29;20052;-85
2022/07/30 00:33:57;;;;;;;10.38;4.15;;;16.10;99.90;;;;;;4919748;29;20618;-84
2022/07/30 00:36:43;;;;;;;6.65;3.88;;;16.10;99.90;;;;;;4908539;29;20142;-86
2022/07/30 00:39:30;;;;;;;8.25;4.07;;;16.10;99.90;;;;;;4915737;29;20472;-85
2022/07/30 00:42:22;;;;;;;12.63;4.50;;;16.10;99.90;;;;;;4920075;29;20131;-84
2022/07/30 00:45:12;;;;;;;9.35;4.25;;;16.10;99.90;;;;;;4915185;29;20157;-85
2022/07/30 00:48:00;;;;;;;11.75;5.63;;;16.00;99.90;;;;;;4886294;29;20111;-85
2022/07/30 00:50:46;;;;;;;12.50;4.72;;;16.00;99.90;;;;;;4916484;29;20067;-85
2022/07/30 00:53:34;;;;;;;10.70;4.40;;;16.00;99.90;;;;;;4903397;29;20084;-84
2022/07/30 00:56:20;;;;;;;11.23;5.15;;;16.00;99.90;;;;;;4911031;29;20496;-87
2022/07/30 00:59:07;;;;;;;8.57;4.13;;;15.90;99.90;;;;;;4917926;29;20060;-86
2022/07/30 01:01:53;;;;;;;9.25;3.90;;;15.90;99.90;;;;;;4918907;29;20048;-87
2022/07/30 01:04:40;;;;;;;7.32;4.05;;;15.90;99.90;;;;;;4904696;29;20048;-85
2022/07/30 01:07:26;;;;;;;6.70;3.45;;;15.90;99.90;;;;;;4902640;29;20508;-86
2022/07/30 01:10:14;;;;;;;11.00;3.83;;;15.80;99.90;;;;;;4919411;29;20052;-85
2022/07/30 01:13:00;;;;;;;6.47;3.83;;;15.80;99.90;;;;;;4902395;29;20215;-86
2022/07/30 01:15:47;;;;;;;9.73;4.05;;;15.80;99.90;;;;;;4920700;29;20076;-85
2022/07/30 01:21:40;;;;;;;;;;;15.70;99.90;;;;;;4905958;29;20052;-85
2022/07/30 01:24:37;;;;;;;8.80;4.20;;;15.70;99.90;;;;;;4919126;29;19934;-85
2022/07/30 01:27:25;;;;;;;8.60;4.65;;;15.70;99.90;;;;;;4901783;29;20079;-84
2022/07/30 01:30:13;;;;;;;9.82;5.88;;;15.60;99.90;;;;;;4901836;29;20068;-85
2022/07/30 01:33:01;;;;;;;14.70;6.90;;;15.60;99.90;;;;;;4888235;29;20051;-87
2022/07/30 01:35:50;;;;;;;15.02;6.78;;;15.60;99.90;;;;;;4902407;29;20091;-84
2022/07/30 01:38:39;;;;;;;16.48;8.70;;;15.60;99.90;;;;;;4921759;29;20075;-85
2022/07/30 01:41:27;;;;;;;12.93;6.95;;;15.50;99.90;;;;;;4892218;29;20519;-84
2022/07/30 01:44:15;;;;;;;11.20;7.03;;;15.50;99.90;;;;;;4905837;29;20056;-84
2022/07/30 01:47:03;;;;;;;13.38;6.20;;;15.50;99.90;;;;;;4918944;29;20372;-86
2022/07/30 01:49:50;;;;;;;12.70;7.13;;;15.50;99.90;;;;;;4915867;29;20075;-86
2022/07/30 01:52:38;;;;;;;13.23;7.10;;;15.40;99.90;;;;;;4916911;29;20079;-84
2022/07/30 01:55:33;;;;;;;16.85;10.65;;;15.40;99.90;;;;;;4901712;29;20135;-85
2022/07/30 01:58:22;;;;;;;15.70;8.90;;;15.40;99.90;;;;;;4911199;29;20392;-84
2022/07/30 02:01:09;;;;;;;11.57;7.60;;;15.40;99.90;;;;;;4918572;29;20108;-84
2022/07/30 02:03:56;;;;;;;19.15;11.20;;;15.40;99.90;;;;;;4901352;29;20087;-84
2022/07/30 02:07:07;;;;;;;15.38;9.23;;;15.40;99.90;;;;;;4917838;29;20051;-85
2022/07/30 02:10:28;;;;;;;20.48;12.75;;;15.40;99.90;;;;;;4919935;29;20044;-86
2022/07/30 02:13:20;;;;;;;16.15;9.30;;;15.40;99.90;;;;;;4921357;29;20084;-84
2022/07/30 02:16:13;;;;;;;16.67;10.60;;;15.40;99.90;;;;;;4923278;29;20115;-85
2022/07/30 02:19:09;;;;;;;16.15;10.25;;;15.40;99.90;;;;;;4924104;29;20086;-87
2022/07/30 02:22:07;;;;;;;17.05;10.85;;;15.40;99.90;;;;;;4910095;29;20060;-84
2022/07/30 02:24:55;;;;;;;17.80;10.02;;;15.40;99.90;;;;;;4930437;29;20135;-85
2022/07/30 02:27:45;;;;;;;17.13;10.30;;;15.40;99.90;;;;;;4931231;29;20523;-84
2022/07/30 02:30:35;;;;;;;19.35;13.43;;;15.40;99.90;;;;;;4921040;29;20138;-85
2022/07/30 02:33:25;;;;;;;21.35;14.38;;;15.40;99.90;;;;;;4902356;29;20059;-84
2022/07/30 02:36:14;;;;;;;30.95;15.75;;;15.40;99.90;;;;;;4927354;29;20048;-84
2022/07/30 02:39:02;;;;;;;22.95;13.30;;;15.30;99.90;;;;;;4904577;29;20511;-84
2022/07/30 02:41:49;;;;;;;18.92;11.32;;;15.30;99.90;;;;;;4916877;29;20052;-85
2022/07/30 02:44:37;;;;;;;22.60;12.82;;;15.30;99.90;;;;;;4917027;29;20055;-85
2022/07/30 02:47:25;;;;;;;19.15;13.43;;;15.30;99.90;;;;;;4900854;29;20131;-85
2022/07/30 02:50:12;;;;;;;18.92;12.38;;;15.30;99.90;;;;;;4915995;29;20484;-84
2022/07/30 02:53:01;;;;;;;18.30;12.90;;;15.30;99.90;;;;;;4916702;29;20059;-85
2022/07/30 02:55:51;;;;;;;16.60;11.38;;;15.30;99.90;;;;;;4919801;29;20087;-85
2022/07/30 02:58:39;;;;;;;17.73;12.93;;;15.20;99.90;;;;;;4925856;29;20143;-84
2022/07/30 03:01:26;;;;;;;14.95;11.13;;;15.20;99.90;;;;;;4915318;29;20139;-84
2022/07/30 03:04:13;;;;;;;16.38;10.13;;;15.20;99.90;;;;;;4916357;29;20119;-85
2022/07/30 03:07:00;;;;;;;16.00;11.63;;;15.20;99.90;;;;;;4900168;29;20078;-84
2022/07/30 03:09:48;;;;;;;14.30;9.77;;;15.20;99.90;;;;;;4915388;29;20078;-85
2022/07/30 03:12:36;;;;;;;13.07;8.77;;;15.20;99.90;;;;;;4899478;29;20070;-85
2022/07/30 03:15:22;;;;;;;20.25;13.32;;;15.20;99.90;;;;;;4900875;29;20063;-86
2022/07/30 03:18:12;;;;;;;14.52;10.18;;;15.10;99.90;;;;;;4917001;29;20048;-85
2022/07/30 03:21:00;;;;;;;15.55;9.57;;;15.10;99.90;;;;;;4907126;29;20044;-86
2022/07/30 03:23:48;;;;;;;18.00;11.20;;;15.10;99.90;;;;;;4915802;29;20110;-85
2022/07/30 03:26:36;;;;;;;13.32;8.95;;;15.00;99.90;;;;;;4914747;29;20142;-85
2022/07/30 03:29:26;;;;;;;12.38;8.63;;;15.10;99.90;;;;;;4915960;29;20040;-85
2022/07/30 03:32:13;;;;;;;16.55;10.15;;;15.00;99.90;;;;;;4915686;29;20063;-84
2022/07/30 03:35:00;;;;;;;14.07;9.73;;;15.00;99.90;;;;;;4915893;29;20531;-85
2022/07/30 03:37:47;;;;;;;12.10;8.68;;;15.00;99.90;;;;;;4915225;29;20060;-85
2022/07/30 03:40:33;;;;;;;12.60;8.38;;;14.90;99.90;;;;;;4906689;29;20100;-85
2022/07/30 03:43:20;;;;;;;11.80;8.68;;;14.90;99.90;;;;;;4900289;29;20492;-85
2022/07/30 03:46:09;;;;;;;12.63;9.73;;;14.90;99.90;;;;;;4902614;29;20060;-86
2022/07/30 03:48:56;;;;;;;14.30;9.73;;;14.80;99.90;;;;;;4916601;29;20059;-87
2022/07/30 03:51:45;;;;;;;10.57;7.97;;;14.80;99.90;;;;;;4918260;29;20458;-84
2022/07/30 03:54:32;;;;;;;12.10;8.10;;;14.70;99.90;;;;;;4918707;29;20054;-85
2022/07/30 03:57:19;;;;;;;13.60;8.27;;;14.70;99.90;;;;;;4901080;29;20055;-83
2022/07/30 04:00:07;;;;;;;12.32;7.93;;;14.70;99.90;;;;;;4902007;29;20510;-84
2022/07/30 04:02:53;;;;;;;10.60;7.20;;;14.60;99.90;;;;;;4905584;29;20060;-84
2022/07/30 04:05:40;;;;;;;12.80;6.93;;;14.60;99.90;;;;;;4922290;29;20044;-84
2022/07/30 04:08:28;;;;;;;9.27;6.65;;;14.50;99.90;;;;;;4914402;29;20060;-84
2022/07/30 04:11:14;;;;;;;10.20;7.57;;;14.50;99.90;;;;;;4916253;29;20063;-84
2022/07/30 04:14:00;;;;;;;10.82;7.07;;;14.40;99.90;;;;;;4915039;29;20056;-84
2022/07/30 04:17:03;;;;;;;10.43;7.50;;;14.40;99.90;;;;;;4899483;29;20064;-83
2022/07/30 04:19:59;;;;;;;10.05;7.00;;;14.40;99.90;;;;;;4899020;29;20047;-84
2022/07/30 04:22:46;;;;;;;10.73;7.03;;;14.40;99.90;;;;;;4914940;29;20059;-84
2022/07/30 04:25:33;;;;;;;13.35;8.05;;;14.50;99.90;;;;;;4921902;29;20135;-84
2022/07/30 04:28:19;;;;;;;10.20;6.65;;;14.50;99.90;;;;;;4885616;29;20063;-84
2022/07/30 04:31:05;;;;;;;9.48;6.25;;;14.40;99.90;;;;;;4898895;29;20055;-84
2022/07/30 04:33:52;;;;;;;8.32;5.88;;;14.40;99.90;;;;;;4914584;29;20059;-84
2022/07/30 04:36:39;;;;;;;9.30;6.05;;;14.50;99.90;;;;;;4914576;29;20052;-84
2022/07/30 04:39:25;;;;;;;14.35;7.45;;;14.50;99.90;;;;;;4916444;29;20060;-85
2022/07/30 04:42:15;;;;;;;10.20;6.80;;;14.50;99.90;;;;;;4902673;29;20086;-83
2022/07/30 04:45:01;;;;;;;10.27;7.57;;;14.60;99.90;;;;;;4903428;29;20056;-84
2022/07/30 04:47:47;;;;;;;9.32;6.88;;;14.60;99.90;;;;;;4914437;29;20650;-84
2022/07/30 04:50:37;;;;;;;10.02;7.10;;;14.70;99.90;;;;;;4899361;29;20084;-84
2022/07/30 04:53:28;;;;;;;9.90;6.53;;;14.70;99.90;;;;;;4916514;29;20052;-84
2022/07/30 04:56:19;;;;;;;10.10;7.07;;;14.80;99.90;;;;;;4901563;29;20370;-85
2022/07/30 04:59:06;;;;;;;9.32;6.70;;;14.80;99.90;;;;;;4899498;29;20543;-84
2022/07/30 05:01:54;;;;;;;8.90;5.82;;;14.90;99.90;;;;;;4920972;29;20138;-85
2022/07/30 05:04:41;;;;;;;10.48;6.78;;;15.00;99.90;;;;;;4886187;29;20490;-85
2022/07/30 05:07:29;;;;;;;8.77;6.15;;;15.10;99.90;;;;;;4898797;29;20055;-83
2022/07/30 05:10:17;;;;;;;9.60;6.82;;;15.20;99.90;;;;;;4898871;29;20048;-85
2022/07/30 05:13:03;;;;;;;11.15;7.38;;;15.30;99.90;;;;;;4897898;29;20052;-85
2022/07/30 05:15:50;;;;;;;14.40;8.60;;;15.40;99.90;;;;;;4917128;29;20143;-86
2022/07/30 05:18:37;;;;;;;11.35;8.68;;;15.50;99.90;;;;;;4922338;29;20060;-84
2022/07/30 05:21:23;;;;;;;14.52;8.93;;;15.60;99.90;;;;;;4901971;29;20048;-85
2022/07/30 05:24:10;;;;;;;16.65;10.35;;;15.70;99.90;;;;;;4914329;29;20135;-85
2022/07/30 05:26:56;;;;;;;14.20;10.23;;;15.80;99.90;;;;;;4897299;29;20099;-85
2022/07/30 05:29:45;;;;;;;14.10;9.48;;;16.00;99.90;;;;;;4898386;29;20656;-84
2022/07/30 05:32:32;;;;;;;21.45;12.18;;;16.10;99.90;;;;;;4914233;29;20099;-85
2022/07/30 05:35:21;;;;;;;21.15;12.43;;;16.20;99.90;;;;;;4914555;29;20087;-85
2022/07/30 05:38:07;;;;;;;23.23;15.10;;;16.30;99.90;;;;;;4906081;29;20060;-86
2022/07/30 05:40:54;;;;;;;20.65;14.82;;;16.40;99.90;;;;;;4889043;29;20056;-84
2022/07/30 05:43:40;;;;;;;18.63;12.68;;;16.50;99.90;;;;;;4901642;29;20056;-80
2022/07/30 05:46:28;;;;;;;18.98;11.57;;;16.60;99.90;;;;;;4902327;29;20065;-84
2022/07/30 05:49:14;;;;;;;23.83;15.40;;;16.70;99.90;;;;;;4901062;29;20066;-86
2022/07/30 05:52:00;;;;;;;24.85;15.63;;;16.80;99.90;;;;;;4918155;29;20052;-86
2022/07/30 05:54:47;;;;;;;18.85;13.55;;;16.80;99.90;;;;;;4919242;29;20048;-84
2022/07/30 05:57:36;;;;;;;19.42;14.43;;;16.90;99.90;;;;;;4919431;29;20444;-84
2022/07/30 06:00:22;;;;;;;18.13;10.93;;;16.90;99.90;;;;;;4924323;29;20107;-83
2022/07/30 06:03:08;;;;;;;30.75;15.38;;;17.10;99.90;;;;;;4902215;29;20044;-83
2022/07/30 06:05:55;;;;;;;23.75;14.38;;;17.20;99.90;;;;;;4918028;29;20044;-84
2022/07/30 06:08:42;;;;;;;20.60;14.02;;;17.40;99.90;;;;;;4918172;29;20056;-84
2022/07/30 06:11:29;;;;;;;19.27;13.15;;;17.50;99.90;;;;;;4916612;29;20052;-82
2022/07/30 06:14:15;;;;;;;20.85;12.68;;;17.70;99.90;;;;;;4901697;29;20052;-85
2022/07/30 06:17:01;;;;;;;22.52;11.15;;;17.80;99.90;;;;;;4921833;29;20060;-83
2022/07/30 06:19:47;;;;;;;17.85;10.20;;;18.00;99.90;;;;;;4918128;29;20135;-86
2022/07/30 06:22:34;;;;;;;18.65;10.40;;;18.10;99.90;;;;;;4905780;29;20060;-83
2022/07/30 06:25:23;;;;;;;18.40;9.82;;;18.20;99.90;;;;;;4909592;29;20067;-84
2022/07/30 06:28:09;;;;;;;17.80;9.10;;;18.50;99.90;;;;;;4918700;29;20488;-84
2022/07/30 06:30:56;;;;;;;12.90;7.57;;;18.70;99.90;;;;;;4905455;29;20115;-86
2022/07/30 06:33:43;;;;;;;13.30;6.90;;;18.90;99.90;;;;;;4918509;29;20052;-85
2022/07/30 06:36:29;;;;;;;13.55;7.80;;;19.10;99.90;;;;;;4903045;29;20506;-86
2022/07/30 06:39:16;;;;;;;13.07;5.65;;;19.30;99.90;;;;;;4920965;29;20059;-88
2022/07/30 06:42:02;;;;;;;13.98;6.15;;;19.40;99.90;;;;;;4920896;29;20147;-87
2022/07/30 06:44:49;;;;;;;14.05;5.47;;;19.60;99.90;;;;;;4923282;29;20040;-86
2022/07/30 06:47:35;;;;;;;11.23;4.32;;;19.80;99.90;;;;;;4921246;29;20104;-86
2022/07/30 06:50:25;;;;;;;14.90;4.07;;;20.00;99.90;;;;;;4920153;28;20088;-86
2022/07/30 06:53:12;;;;;;;15.32;3.75;;;20.10;99.90;;;;;;4920934;29;20064;-83
2022/07/30 06:55:59;;;;;;;10.43;3.83;;;20.30;99.90;;;;;;4920378;29;20053;-82
2022/07/30 06:58:45;;;;;;;10.73;3.70;;;20.40;99.90;;;;;;4904434;29;20048;-85
2022/07/30 07:01:31;;;;;;;12.77;4.68;;;20.40;99.90;;;;;;4919903;29;20052;-86
2022/07/30 07:04:24;;;;;;;7.35;3.90;;;20.60;99.90;;;;;;4922251;29;20123;-84
2022/07/30 07:07:10;;;;;;;13.38;4.05;;;20.80;99.90;;;;;;4922393;29;20048;-84
2022/07/30 07:09:57;;;;;;;11.70;3.75;;;20.90;99.90;;;;;;4917563;29;20131;-82
2022/07/30 07:12:44;;;;;;;8.55;3.58;;;20.90;99.90;;;;;;4919369;29;20052;-84
2022/07/30 07:15:31;;;;;;;13.38;5.05;;;21.00;99.90;;;;;;4920991;29;20048;-93
2022/07/30 07:18:17;;;;;;;10.40;3.60;;;21.00;99.90;;;;;;4921544;29;20111;-86
2022/07/30 07:21:07;;;;;;;11.25;3.30;;;21.00;99.90;;;;;;4928952;29;20116;-86
2022/07/30 07:23:53;;;;;;;13.07;4.03;;;21.10;99.90;;;;;;4921028;29;20394;-84
2022/07/30 07:26:39;;;;;;;11.45;3.58;;;21.40;99.90;;;;;;4916789;29;20060;-85
2022/07/30 07:29:25;;;;;;;18.05;4.82;;;21.30;99.90;;;;;;4916064;29;20052;-82
2022/07/30 07:32:11;;;;;;;12.02;4.07;;;21.20;99.90;;;;;;4916693;29;20052;-83
2022/07/30 07:34:58;;;;;;;10.15;4.07;;;21.30;99.90;;;;;;4915938;29;20416;-83
2022/07/30 07:37:44;;;;;;;7.47;3.45;;;21.40;99.90;;;;;;4916701;29;20504;-85
2022/07/30 07:40:30;;;;;;;14.25;4.88;;;21.50;99.90;;;;;;4902632;29;20148;-89
2022/07/30 07:43:16;;;;;;;9.57;3.50;;;21.40;99.90;;;;;;4900280;29;20163;-84
2022/07/30 07:46:03;;;;;;;13.93;3.83;;;21.50;99.90;;;;;;4916438;29;20624;-81
2022/07/30 07:48:49;;;;;;;10.90;3.20;;;21.70;99.90;;;;;;4917652;29;20147;-82
2022/07/30 07:51:35;;;;;;;7.97;3.88;;;21.80;99.90;;;;;;4916545;29;20456;-86
2022/07/30 07:54:25;;;;;;;8.65;3.28;;;21.90;99.90;;;;;;4899135;29;20063;-83
2022/07/30 07:57:11;;;;;;;11.57;3.45;;;22.00;99.90;;;;;;4917778;29;20083;-85
2022/07/30 07:59:58;;;;;;;13.13;4.32;;;22.20;99.90;;;;;;4914464;29;20079;-84
2022/07/30 08:02:45;;;;;;;11.00;3.70;;;22.30;99.90;;;;;;4916348;29;20056;-84
2022/07/30 08:05:32;;;;;;;11.80;3.50;;;22.30;99.90;;;;;;4913445;29;20497;-86
2022/07/30 08:08:18;;;;;;;9.93;3.30;;;22.50;99.90;;;;;;4919099;29;20048;-83
2022/07/30 08:11:06;;;;;;;9.77;2.92;;;22.40;99.90;;;;;;4917521;29;20210;-85
2022/07/30 08:13:53;;;;;;;7.97;2.75;;;22.60;99.90;;;;;;4925310;29;20107;-84
2022/07/30 08:16:39;;;;;;;7.47;3.60;;;23.00;99.90;;;;;;4924819;29;20115;-84
2022/07/30 08:19:25;;;;;;;8.73;3.22;;;23.10;99.90;;;;;;4915755;29;20064;-84
2022/07/30 08:22:12;;;;;;;9.55;3.85;;;22.90;99.90;;;;;;4919682;29;20119;-84
2022/07/30 08:24:59;;;;;;;8.98;3.58;;;22.90;99.90;;;;;;4920817;29;20436;-84
2022/07/30 08:27:45;;;;;;;9.93;3.28;;;23.00;99.90;;;;;;4922778;29;20051;-85
2022/07/30 08:30:31;;;;;;;15.98;4.47;;;23.20;99.90;;;;;;4900514;29;20092;-84
2022/07/30 08:33:18;;;;;;;7.80;3.22;;;23.30;99.90;;;;;;4917197;29;20050;-86
2022/07/30 08:36:06;;;;;;;13.80;4.07;;;23.30;99.90;;;;;;4915548;29;20445;-86
2022/07/30 08:38:52;;;;;;;12.90;3.60;;;23.30;99.90;;;;;;4916946;29;20055;-84
2022/07/30 08:41:43;;;;;;;17.70;3.20;;;23.50;99.90;;;;;;4915688;29;20087;-84
2022/07/30 08:44:31;;;;;;;11.82;4.25;;;23.40;99.90;;;;;;4915925;29;20369;-86
2022/07/30 08:47:19;;;;;;;10.65;3.20;;;23.40;99.90;;;;;;4916088;29;20457;-84
2022/07/30 08:50:10;;;;;;;8.93;3.47;;;23.30;99.90;;;;;;4900900;29;20059;-86
2022/07/30 08:52:57;;;;;;;6.53;3.20;;;23.60;99.90;;;;;;4915306;29;20048;-86
2022/07/30 08:55:44;;;;;;;8.55;3.47;;;23.50;99.90;;;;;;4914698;29;20052;-83
2022/07/30 08:58:33;;;;;;;7.65;2.70;;;23.50;99.90;;;;;;4914655;29;20563;-82
2022/07/30 09:01:21;;;;;;;13.15;3.28;;;23.60;99.90;;;;;;4916236;29;20050;-88
2022/07/30 09:04:07;;;;;;;10.23;3.20;;;23.90;99.90;;;;;;4906429;29;20493;-86
2022/07/30 09:06:56;;;;;;;8.45;3.40;;;23.80;99.90;;;;;;4918613;29;20076;-84
2022/07/30 09:09:45;;;;;;;9.48;3.03;;;23.80;99.90;;;;;;4919135;29;20059;-90
2022/07/30 09:12:42;;;;;;;11.38;3.83;;;24.10;99.90;;;;;;4924914;29;20051;-88
2022/07/30 09:15:28;;;;;;;11.55;3.28;;;23.90;99.90;;;;;;4927869;29;20537;-85
2022/07/30 09:18:27;;;;;;;8.73;2.80;;;24.00;99.90;;;;;;4911530;29;20147;-86
2022/07/30 09:21:23;;;;;;;10.35;3.13;;;24.40;99.90;;;;;;4922073;29;20059;-84
2022/07/30 09:24:11;;;;;;;9.57;3.47;;;24.60;99.90;;;;;;4903033;29;20068;-88
2022/07/30 09:27:03;;;;;;;11.38;3.95;;;24.40;99.90;;;;;;4907098;29;20063;-86
2022/07/30 09:29:59;;;;;;;11.00;4.07;;;24.30;99.90;;;;;;4917404;29;20044;-86
2022/07/30 09:32:53;;;;;;;9.07;3.22;;;24.50;99.90;;;;;;4918739;28;20162;-84
2022/07/30 09:35:41;;;;;;;5.55;2.85;;;24.80;99.90;;;;;;4921054;29;20052;-84
2022/07/30 09:38:28;;;;;;;8.40;2.78;;;24.70;99.90;;;;;;4922818;29;20218;-85
2022/07/30 09:41:15;;;;;;;9.57;3.50;;;24.80;99.90;;;;;;4924574;29;20072;-80
2022/07/30 09:44:03;;;;;;;7.50;2.80;;;25.00;99.80;;;;;;4918893;29;20059;-83
2022/07/30 09:46:52;;;;;;;11.65;2.80;;;24.70;99.70;;;;;;4920135;29;20459;-88
2022/07/30 09:49:40;;;;;;;8.68;2.97;;;24.90;99.40;;;;;;4919947;29;20060;-87
2022/07/30 09:52:27;;;;;;;7.53;3.42;;;24.90;99.20;;;;;;4920256;29;20126;-87
2022/07/30 09:55:14;;;;;;;8.80;3.15;;;24.90;98.90;;;;;;4920385;29;20501;-87
2022/07/30 09:58:05;;;;;;;9.98;3.08;;;24.70;98.80;;;;;;4918560;29;20048;-87
2022/07/30 10:00:57;;;;;;;12.75;3.65;;;24.80;98.90;;;;;;4918047;29;20059;-83
2022/07/30 10:03:44;;;;;;;16.02;4.40;;;24.50;99.10;;;;;;4904633;29;20048;-85
2022/07/30 10:06:36;;;;;;;13.73;3.55;;;24.40;99.30;;;;;;4918836;29;20044;-87
2022/07/30 10:09:26;;;;;;;9.35;2.65;;;24.40;99.10;;;;;;4901336;29;20049;-80
2022/07/30 10:12:13;;;;;;;8.10;2.80;;;24.50;99.00;;;;;;4917831;29;20052;-83
2022/07/30 10:15:01;;;;;;;10.70;3.08;;;25.00;98.60;;;;;;4901395;29;20056;-84
2022/07/30 10:17:49;;;;;;;10.38;3.13;;;25.30;98.20;;;;;;4918927;29;20416;-86
2022/07/30 10:20:37;;;;;;;8.57;2.97;;;25.70;98.00;;;;;;4920144;29;20052;-82
2022/07/30 10:23:28;;;;;;;9.25;3.42;;;26.00;97.20;;;;;;4920662;29;20056;-82
2022/07/30 10:26:15;;;;;;;12.35;2.88;;;25.50;97.40;;;;;;4925968;29;20135;-88
2022/07/30 10:29:03;;;;;;;8.75;2.40;;;25.90;97.30;;;;;;4913845;29;20048;-82
2022/07/30 10:31:49;;;;;;;6.75;2.70;;;25.70;97.20;;;;;;4913151;29;20058;-84
2022/07/30 10:34:38;;;;;;;9.25;2.75;;;25.30;97.30;;;;;;4922199;29;20052;-85
2022/07/30 10:37:26;;;;;;;7.07;2.70;;;25.50;97.70;;;;;;4901809;29;20144;-84
2022/07/30 10:40:20;;;;;;;12.85;2.88;;;25.80;97.30;;;;;;4917750;29;20044;-86
2022/07/30 10:43:27;;;;;;;8.50;2.85;;;25.90;97.10;;;;;;4901766;29;20155;-81
2022/07/30 10:46:26;;;;;;;5.95;2.25;;;25.50;96.50;;;;;;4890004;29;20099;-91
2022/07/30 10:49:14;;;;;;;6.45;2.08;;;25.50;97.00;;;;;;4916850;29;20469;-85
2022/07/30 10:52:01;;;;;;;6.63;2.33;;;25.40;97.30;;;;;;4904148;29;20397;-83
2022/07/30 10:54:52;;;;;;;5.25;2.25;;;25.40;97.30;;;;;;4917872;29;20044;-86
2022/07/30 10:58:00;;;;;;;7.45;2.42;;;25.40;96.80;;;;;;4918535;29;20048;-83
2022/07/30 11:00:53;;;;;;;7.13;2.17;;;25.80;96.60;;;;;;4921901;29;20060;-85
2022/07/30 11:03:40;;;;;;;5.80;2.08;;;26.20;96.40;;;;;;4904683;29;20059;-89
2022/07/30 11:06:27;;;;;;;10.00;2.50;;;26.00;96.30;;;;;;4905177;29;20447;-85
2022/07/30 11:09:40;;;;;;;6.45;2.53;;;26.30;96.00;;;;;;4908014;29;20048;-78
2022/07/30 11:12:41;;;;;;;8.10;2.30;;;26.10;95.90;;;;;;4917742;29;20060;-82
2022/07/30 11:15:56;;;;;;;7.75;2.28;;;26.40;95.60;;;;;;4919383;29;20377;-83
2022/07/30 11:19:02;;;;;;;5.88;2.00;;;26.50;94.70;;;;;;4918389;29;20044;-84
2022/07/30 11:22:30;;;;;;;8.57;2.65;;;26.40;95.00;;;;;;4918857;29;20067;-83
2022/07/30 11:25:28;;;;;;;9.70;2.70;;;26.20;95.00;;;;;;4922031;29;20040;-87
2022/07/30 11:28:41;;;;;;;9.43;2.45;;;26.00;95.30;;;;;;4917639;29;20054;-89
2022/07/30 11:31:31;;;;;;;8.50;3.20;;;26.00;95.30;;;;;;4920139;29;20059;-85
2022/07/30 11:34:22;;;;;;;9.85;2.50;;;26.20;95.50;;;;;;4923277;29;20078;-89
2022/07/30 11:37:15;;;;;;;9.93;3.00;;;26.00;95.40;;;;;;4888208;29;20087;-87
2022/07/30 11:40:01;;;;;;;8.20;2.50;;;26.60;95.00;;;;;;4916202;29;20059;-87
2022/07/30 11:42:47;;;;;;;7.75;2.10;;;26.40;94.90;;;;;;4899659;29;20102;-90
2022/07/30 11:45:33;;;;;;;5.22;1.80;;;26.90;94.70;;;;;;4916262;29;20083;-88
2022/07/30 11:48:20;;;;;;;7.18;2.20;;;27.20;94.40;;;;;;4914252;28;20382;-84
2022/07/30 11:51:07;;;;;;;6.32;2.17;;;27.00;94.70;;;;;;4926245;29;20360;-88
2022/07/30 11:54:04;;;;;;;5.75;1.80;;;26.90;94.40;;;;;;4930875;29;20115;-87
2022/07/30 11:56:58;;;;;;;7.97;2.00;;;27.30;94.10;;;;;;4917378;29;20056;-92
2022/07/30 11:59:55;;;;;;;8.10;1.85;;;26.70;94.50;;;;;;4900580;29;20052;-90
2022/07/30 12:02:41;;;;;;;4.22;1.90;;;26.70;94.50;;;;;;4903485;29;20056;-89
2022/07/30 12:05:27;;;;;;;7.63;2.00;;;26.80;94.60;;;;;;4916166;29;20044;-87
2022/07/30 12:08:15;;;;;;;7.55;2.00;;;26.70;94.40;;;;;;4915360;29;20044;-89
2022/07/30 12:11:02;;;;;;;8.10;2.00;;;26.40;94.20;;;;;;4915632;29;20583;-85
2022/07/30 12:14:00;;;;;;;7.32;1.77;;;27.00;94.20;;;;;;4909530;29;20044;-86
2022/07/30 12:16:53;;;;;;;9.40;2.42;;;27.40;93.50;;;;;;4899917;29;20400;-88
2022/07/30 12:19:47;;;;;;;6.82;1.70;;;27.20;93.50;;;;;;4914171;29;20079;-85
2022/07/30 12:22:33;;;;;;;4.32;1.35;;;27.50;93.80;;;;;;4914309;29;20094;-85
2022/07/30 12:25:20;;;;;;;6.55;1.77;;;27.60;93.80;;;;;;4899335;29;20091;-83
2022/07/30 12:28:10;;;;;;;9.20;1.88;;;27.40;93.50;;;;;;4917053;28;20059;-88
2022/07/30 12:30:57;;;;;;;6.18;2.10;;;27.60;93.40;;;;;;4916392;29;20072;-82
2022/07/30 12:33:43;;;;;;;4.43;1.70;;;27.60;93.00;;;;;;4915681;29;20083;-89
2022/07/30 12:36:32;;;;;;;6.30;1.85;;;28.00;92.80;;;;;;4915948;29;20131;-87
2022/07/30 12:39:21;;;;;;;12.55;2.67;;;28.50;92.60;;;;;;4900732;29;20083;-87
2022/07/30 12:42:18;;;;;;;5.47;1.55;;;28.90;92.20;;;;;;4926433;29;20048;-89
2022/07/30 12:45:06;;;;;;;6.28;1.75;;;28.50;91.70;;;;;;4907812;29;20056;-83
2022/07/30 12:47:52;;;;;;;7.22;1.60;;;28.40;91.80;;;;;;4922609;29;20052;-93
2022/07/30 12:50:38;;;;;;;7.25;1.50;;;28.60;92.00;;;;;;4902968;29;20048;-85
2022/07/30 12:53:29;;;;;;;4.78;2.05;;;28.90;91.60;;;;;;4921775;29;20126;-87
2022/07/30 12:56:17;;;;;;;5.75;1.95;;;28.70;90.90;;;;;;4919998;29;20158;-88
2022/07/30 12:59:04;;;;;;;7.63;2.00;;;28.70;91.20;;;;;;4903601;29;20382;-86
2022/07/30 13:01:52;;;;;;;6.78;1.63;;;28.70;90.70;;;;;;4920876;29;20052;-85
2022/07/30 13:04:50;;;;;;;6.35;1.50;;;28.30;91.40;;;;;;4923948;29;20052;-85
2022/07/30 13:07:58;;;;;;;5.15;1.60;;;29.10;91.00;;;;;;4919150;29;20051;-80
2022/07/30 13:11:01;;;;;;;7.90;1.60;;;29.50;90.40;;;;;;4900909;29;20051;-77
2022/07/30 13:13:47;;;;;;;4.43;1.55;;;29.90;90.50;;;;;;4901729;29;20063;-79
2022/07/30 13:16:35;;;;;;;6.05;1.67;;;29.70;89.60;;;;;;4917509;29;20040;-80
2022/07/30 13:19:22;;;;;;;17.67;2.58;;;29.70;88.10;;;;;;4917719;29;20062;-77
2022/07/30 13:22:08;;;;;;;6.15;1.55;;;29.40;89.40;;;;;;4901514;29;20054;-79
2022/07/30 13:24:54;;;;;;;5.30;1.40;;;29.50;87.90;;;;;;4902810;29;20432;-82
2022/07/30 13:27:40;;;;;;;5.43;1.77;;;29.70;87.80;;;;;;4917742;29;20055;-83
2022/07/30 13:30:27;;;;;;;6.97;1.58;;;30.10;87.20;;;;;;4904518;29;20056;-83
2022/07/30 13:33:14;;;;;;;4.30;1.10;;;30.20;85.80;;;;;;4904985;29;20067;-88
2022/07/30 13:36:00;;;;;;;5.18;1.10;;;30.50;85.10;;;;;;4919223;29;20453;-85
2022/07/30 13:38:47;;;;;;;6.70;1.60;;;30.00;85.10;;;;;;4929780;29;20048;-91
2022/07/30 13:41:34;;;;;;;3.88;1.20;;;30.40;85.00;;;;;;4904435;29;20055;-86
2022/07/30 13:44:20;;;;;;;7.53;1.30;;;30.60;83.20;;;;;;4919388;29;20507;-86
2022/07/30 13:47:07;;;;;;;3.70;1.33;;;30.30;83.30;;;;;;4901856;29;20123;-89
2022/07/30 13:49:53;;;;;;;4.60;1.27;;;30.10;84.00;;;;;;4917251;29;20048;-81
2022/07/30 13:52:39;;;;;;;4.95;1.30;;;30.10;84.10;;;;;;4915962;29;20087;-81
2022/07/30 13:55:25;;;;;;;6.10;1.38;;;30.30;83.00;;;;;;4917363;29;20052;-81
2022/07/30 13:58:12;;;;;;;6.00;1.40;;;30.50;81.70;;;;;;4916028;29;20056;-82
2022/07/30 14:00:59;;;;;;;3.00;0.90;;;31.20;81.30;;;;;;4902161;29;20045;-84
2022/07/30 14:03:45;;;;;;;7.60;1.90;;;31.50;80.00;;;;;;4918122;29;20055;-84
2022/07/30 14:06:31;;;;;;;5.45;1.55;;;31.10;78.50;;;;;;4919744;29;20056;-82
2022/07/30 14:09:17;;;;;;;5.28;1.33;;;31.50;78.20;;;;;;4922271;29;20056;-81
2022/07/30 14:12:04;;;;;;;2.80;1.08;;;31.60;77.50;;;;;;4925476;29;20091;-84
2022/07/30 14:14:50;;;;;;;3.30;0.93;;;31.80;76.60;;;;;;4904911;29;20064;-80
2022/07/30 14:17:37;;;;;;;6.75;1.17;;;31.80;76.70;;;;;;4915899;29;20062;-80
2022/07/30 14:20:23;;;;;;;2.03;0.85;;;32.00;75.40;;;;;;4899628;29;20060;-82
2022/07/30 14:23:10;;;;;;;7.28;0.90;;;32.30;75.30;;;;;;4917817;29;20048;-85
2022/07/30 14:25:56;;;;;;;4.78;1.00;;;31.90;73.90;;;;;;4900675;29;20056;-83
2022/07/30 14:28:42;;;;;;;3.35;0.90;;;32.00;72.90;;;;;;4914828;29;20456;-81
2022/07/30 14:31:28;;;;;;;12.40;1.17;;;31.60;73.10;;;;;;4900406;29;20063;-85
2022/07/30 14:34:16;;;;;;;2.88;0.63;;;31.30;75.00;;;;;;4901323;29;20071;-83